createdAt,value
2023-03-27T00:02:42.517Z,75.14
2023-03-27T00:06:41.373Z,75.40
2023-03-27T00:10:39.441Z,75.85
2023-03-27T00:14:37.425Z,76.16
2023-03-27T00:18:36.434Z,76.24
2023-03-27T00:22:36.348Z,76.36
2023-03-27T00:26:37.362Z,76.37
2023-03-27T00:30:35.372Z,77.02
2023-03-27T00:34:33.458Z,77.56
2023-03-27T00:38:31.339Z,77.40
2023-03-27T00:42:29.360Z,77.04
2023-03-27T00:46:38.382Z,76.93
2023-03-27T00:50:38.314Z,77.05
2023-03-27T00:54:38.290Z,77.09
2023-03-27T00:58:40.298Z,78.32
2023-03-27T01:02:38.387Z,77.80
2023-03-27T01:06:36.294Z,77.59
2023-03-27T01:10:34.259Z,77.36
2023-03-27T01:14:50.315Z,77.37
2023-03-27T01:18:54.229Z,78.14
2023-03-27T01:22:52.331Z,79.43
2023-03-27T01:27:11.233Z,80.04
2023-03-27T01:31:37.348Z,80.13
2023-03-27T01:35:38.314Z,80.10
2023-03-27T01:39:52.326Z,80.01
2023-03-27T01:43:53.208Z,79.91
2023-03-27T01:47:55.269Z,79.81
2023-03-27T01:52:03.204Z,79.97
2023-03-27T01:56:05.205Z,80.14
2023-03-27T02:00:19.587Z,79.96
2023-03-27T02:04:35.317Z,79.90
2023-03-27T02:08:42.282Z,80.02
2023-03-27T02:12:44.251Z,80.06
2023-03-27T02:16:43.285Z,79.95
2023-03-27T02:20:41.238Z,79.90
2023-03-27T02:24:39.210Z,79.66
2023-03-27T02:28:46.212Z,79.33
2023-03-27T02:33:09.291Z,79.08
2023-03-27T02:37:11.239Z,78.84
2023-03-27T02:41:41.174Z,78.65
2023-03-27T02:45:58.258Z,78.48
2023-03-27T02:49:59.147Z,78.36
2023-03-27T02:54:04.188Z,78.24
2023-03-27T02:58:06.161Z,78.16
2023-03-27T03:02:13.182Z,78.22
2023-03-27T03:06:21.104Z,78.34
2023-03-27T03:10:19.166Z,79.21
2023-03-27T03:14:17.096Z,79.74
2023-03-27T03:18:16.119Z,80.02
2023-03-27T03:22:14.091Z,80.32
2023-03-27T03:26:12.188Z,80.26
2023-03-27T03:30:11.074Z,80.03
2023-03-27T03:34:21.152Z,79.81
2023-03-27T03:38:19.104Z,79.00
2023-03-27T03:42:22.974Z,78.97
2023-03-27T03:46:22.174Z,79.23
2023-03-27T03:50:20.103Z,79.30
2023-03-27T03:54:17.999Z,79.46
2023-03-27T03:58:16.087Z,79.76
2023-03-27T04:02:14.095Z,79.69
2023-03-27T04:06:14.086Z,79.58
2023-03-27T04:10:15.050Z,79.54
2023-03-27T04:14:13.053Z,79.56
2023-03-27T04:18:15.319Z,79.08
2023-03-27T04:22:14.107Z,79.51
2023-03-27T04:26:12.097Z,79.48
2023-03-27T04:30:34.050Z,79.08
2023-03-27T04:35:01.040Z,81.16
2023-03-27T04:39:09.991Z,81.07
2023-03-27T04:43:08.098Z,80.57
2023-03-27T04:47:08.922Z,81.36
2023-03-27T04:51:07.968Z,82.48
2023-03-27T04:55:06.995Z,82.35
2023-03-27T04:59:05.968Z,82.18
2023-03-27T05:03:08.140Z,82.34
2023-03-27T05:07:19.004Z,81.96
2023-03-27T05:11:16.980Z,81.76
2023-03-27T05:15:16.010Z,81.53
2023-03-27T05:19:14.064Z,81.39
2023-03-27T05:23:16.949Z,81.37
2023-03-27T05:27:15.023Z,81.46
2023-03-27T05:31:13.960Z,81.61
2023-03-27T05:35:25.004Z,81.78
2023-03-27T05:39:22.872Z,82.23
2023-03-27T05:43:20.950Z,82.23
2023-03-27T05:47:18.906Z,82.07
2023-03-27T05:51:17.938Z,81.92
2023-03-27T05:55:15.899Z,81.61
2023-03-27T05:59:14.043Z,81.31
2023-03-27T06:02:55.116Z,81.61
2023-03-27T06:06:19.751Z,81.93
2023-03-27T06:09:43.687Z,81.91
2023-03-27T06:13:26.217Z,81.74
2023-03-27T06:16:55.112Z,81.58
2023-03-27T06:20:38.337Z,81.90
2023-03-27T06:24:02.332Z,82.18
2023-03-27T06:27:26.945Z,82.32
2023-03-27T06:30:51.264Z,82.28
2023-03-27T06:34:23.983Z,82.21
2023-03-27T06:38:00.216Z,82.04
2023-03-27T06:41:24.087Z,81.84
2023-03-27T06:45:23.574Z,81.55
2023-03-27T06:49:19.194Z,81.13
2023-03-27T06:52:43.598Z,80.91
2023-03-27T06:56:27.316Z,80.58
2023-03-27T07:00:13.001Z,80.56
2023-03-27T07:03:59.935Z,80.54
2023-03-27T07:07:48.023Z,80.53
2023-03-27T07:11:14.113Z,80.93
2023-03-27T07:14:41.574Z,81.16
2023-03-27T07:18:06.768Z,81.33
2023-03-27T07:21:31.135Z,81.62
2023-03-27T07:24:55.927Z,81.63
2023-03-27T07:28:21.173Z,81.61
2023-03-27T07:31:56.912Z,81.81
2023-03-27T07:35:44.783Z,82.07
2023-03-27T07:39:26.999Z,82.18
2023-03-27T07:42:51.434Z,81.94
2023-03-27T07:46:17.247Z,81.89
2023-03-27T07:49:42.064Z,81.86
2023-03-27T07:53:08.881Z,81.96
2023-03-27T07:56:35.954Z,82.22
2023-03-27T08:00:22.865Z,82.32
2023-03-27T08:03:55.707Z,82.73
2023-03-27T08:07:21.613Z,82.98
2023-03-27T08:10:46.227Z,80.67
2023-03-27T08:14:10.510Z,79.86
2023-03-27T08:17:36.092Z,79.53
2023-03-27T08:21:02.149Z,79.35
2023-03-27T08:24:26.777Z,78.38
2023-03-27T08:28:03.056Z,78.40
2023-03-27T08:31:29.369Z,78.40
2023-03-27T08:34:56.644Z,78.28
2023-03-27T08:38:26.596Z,78.81
2023-03-27T08:42:06.912Z,79.45
2023-03-27T08:45:43.969Z,80.01
2023-03-27T08:49:17.761Z,79.52
2023-03-27T08:53:01.139Z,80.05
2023-03-27T08:56:28.211Z,80.80
2023-03-27T08:59:57.083Z,81.26
2023-03-27T09:03:37.360Z,81.09
2023-03-27T09:07:01.922Z,81.02
2023-03-27T09:10:36.932Z,80.84
2023-03-27T09:14:21.459Z,80.77
2023-03-27T09:17:52.007Z,80.30
2023-03-27T09:21:27.965Z,79.99
2023-03-27T09:24:57.854Z,79.62
2023-03-27T09:28:50.803Z,79.37
2023-03-27T09:32:17.833Z,79.27
2023-03-27T09:35:42.332Z,79.10
2023-03-27T09:39:08.280Z,79.20
2023-03-27T09:42:37.119Z,78.42
2023-03-27T09:46:02.315Z,77.98
2023-03-27T09:49:27.015Z,78.18
2023-03-27T09:52:52.388Z,78.01
2023-03-27T09:56:30.874Z,78.02
2023-03-27T10:00:00.676Z,78.29
2023-03-27T10:03:24.884Z,78.31
2023-03-27T10:07:05.625Z,78.12
2023-03-27T10:10:45.799Z,77.82
2023-03-27T10:14:20.430Z,78.13
2023-03-27T10:17:49.509Z,78.22
2023-03-27T10:21:28.698Z,77.47
2023-03-27T10:24:54.139Z,77.52
2023-03-27T10:28:30.958Z,77.99
2023-03-27T10:32:10.317Z,77.52
2023-03-27T10:35:45.902Z,76.60
2023-03-27T10:39:15.419Z,76.25
2023-03-27T10:43:05.990Z,76.56
2023-03-27T10:46:32.118Z,77.01
2023-03-27T10:50:23.261Z,76.84
2023-03-27T10:53:54.361Z,77.02
2023-03-27T10:57:26.877Z,77.52
2023-03-27T11:00:57.699Z,77.22
2023-03-27T11:04:25.972Z,76.96
2023-03-27T11:08:04.020Z,76.57
2023-03-27T11:11:31.837Z,76.48
2023-03-27T11:15:01.014Z,76.12
2023-03-27T11:18:32.241Z,76.26
2023-03-27T11:22:04.562Z,75.68
2023-03-27T11:25:43.416Z,75.65
2023-03-27T11:29:32.242Z,75.32
2023-03-27T11:33:34.842Z,74.79
2023-03-27T11:37:05.886Z,74.25
2023-03-27T11:40:37.877Z,74.01
2023-03-27T11:44:02.361Z,74.15
2023-03-27T11:48:03.552Z,74.85
2023-03-27T11:51:32.777Z,75.48
2023-03-27T11:55:07.607Z,75.75
2023-03-27T11:58:53.607Z,75.54
2023-03-27T12:02:21.523Z,76.44
2023-03-27T12:06:05.634Z,76.87
2023-03-27T12:09:35.463Z,78.62
2023-03-27T12:13:41.851Z,74.04
2023-03-27T12:17:21.803Z,72.63
2023-03-27T12:21:08.454Z,72.62
2023-03-27T12:24:59.710Z,73.79
2023-03-27T12:29:23.490Z,71.18
2023-03-27T12:33:12.465Z,70.19
2023-03-27T12:36:39.015Z,71.00
2023-03-27T12:40:12.724Z,71.62
2023-03-27T12:43:41.167Z,73.58
2023-03-27T12:47:26.409Z,74.89
2023-03-27T12:51:00.798Z,77.52
2023-03-27T12:54:27.876Z,79.86
2023-03-27T12:57:54.156Z,82.02
2023-03-27T13:01:49.064Z,82.88
2023-03-27T13:05:26.891Z,84.48
2023-03-27T13:09:12.609Z,84.42
2023-03-27T13:12:46.466Z,83.64
2023-03-27T13:16:11.931Z,83.31
2023-03-27T13:19:49.030Z,83.38
2023-03-27T13:23:33.798Z,83.35
2023-03-27T13:27:21.423Z,82.16
2023-03-27T13:30:49.243Z,82.31
2023-03-27T13:34:42.615Z,81.66
2023-03-27T13:38:13.610Z,81.41
2023-03-27T13:41:58.444Z,81.16
2023-03-27T13:45:40.897Z,80.54
2023-03-27T13:49:43.114Z,79.54
2023-03-27T13:53:12.795Z,79.85
2023-03-27T13:57:05.471Z,80.01
2023-03-27T14:00:48.069Z,79.34
2023-03-27T14:04:27.605Z,77.47
2023-03-27T14:08:04.100Z,77.44
2023-03-27T14:11:54.861Z,78.79
2023-03-27T14:15:43.772Z,79.58
2023-03-27T14:19:39.238Z,79.80
2023-03-27T14:23:07.367Z,79.60
2023-03-27T14:26:49.593Z,79.80
2023-03-27T14:30:17.102Z,79.09
2023-03-27T14:34:03.081Z,79.44
2023-03-27T14:37:36.882Z,80.50
2023-03-27T14:41:21.252Z,81.00
2023-03-27T14:44:53.994Z,81.16
2023-03-27T14:48:41.350Z,79.42
2023-03-27T14:52:07.870Z,78.96
2023-03-27T14:55:57.755Z,78.53
2023-03-27T14:59:48.065Z,77.65
2023-03-27T15:03:14.725Z,76.13
2023-03-27T15:06:39.612Z,75.53
2023-03-27T15:10:07.456Z,75.01
2023-03-27T15:13:54.448Z,75.33
2023-03-27T15:17:23.747Z,75.29
2023-03-27T15:20:47.944Z,74.60
2023-03-27T15:24:31.970Z,73.00
2023-03-27T15:27:57.617Z,72.19
2023-03-27T15:31:22.080Z,71.99
2023-03-27T15:34:49.179Z,71.80
2023-03-27T15:38:16.011Z,70.85
2023-03-27T15:41:42.609Z,70.09
2023-03-27T15:45:07.242Z,69.92
2023-03-27T15:48:32.637Z,69.13
2023-03-27T15:51:57.561Z,69.81
2023-03-27T15:55:36.303Z,69.31
2023-03-27T15:59:06.521Z,69.51
2023-03-27T16:02:30.827Z,69.94
2023-03-27T16:05:56.772Z,69.17
2023-03-27T16:09:27.212Z,69.43
2023-03-27T16:12:52.997Z,68.86
2023-03-27T16:16:23.092Z,68.08
2023-03-27T16:19:57.360Z,67.94
2023-03-27T16:23:21.443Z,67.85
2023-03-27T16:26:45.365Z,67.87
2023-03-27T16:30:10.368Z,67.05
2023-03-27T16:33:34.147Z,67.03
2023-03-27T16:36:58.044Z,67.20
2023-03-27T16:40:22.314Z,66.45
2023-03-27T16:43:48.923Z,66.40
2023-03-27T16:47:13.401Z,66.45
2023-03-27T16:50:57.136Z,66.53
2023-03-27T16:54:55.074Z,66.94
2023-03-27T16:58:53.085Z,67.35
2023-03-27T17:02:53.076Z,66.54
2023-03-27T17:06:51.060Z,66.66
2023-03-27T17:10:49.066Z,66.93
2023-03-27T17:14:47.118Z,67.03
2023-03-27T17:18:45.037Z,67.03
2023-03-27T17:22:43.178Z,67.22
2023-03-27T17:26:42.035Z,67.43
2023-03-27T17:30:46.865Z,68.00
2023-03-27T17:34:51.041Z,67.88
2023-03-27T17:38:50.022Z,67.37
2023-03-27T17:42:48.010Z,66.90
2023-03-27T17:46:46.141Z,66.49
2023-03-27T17:50:45.078Z,66.98
2023-03-27T17:54:43.067Z,67.83
2023-03-27T17:58:40.970Z,68.37
2023-03-27T18:02:39.172Z,69.07
2023-03-27T18:06:36.975Z,69.69
2023-03-27T18:10:35.525Z,70.90
2023-03-27T18:14:33.105Z,71.84
2023-03-27T18:18:31.001Z,72.21
2023-03-27T18:22:30.984Z,72.78
2023-03-27T18:26:29.071Z,73.24
2023-03-27T18:30:32.301Z,73.76
2023-03-27T18:34:30.040Z,73.84
2023-03-27T18:38:28.037Z,74.44
2023-03-27T18:42:26.030Z,74.69
2023-03-27T18:46:23.944Z,75.08
2023-03-27T18:50:21.964Z,75.76
2023-03-27T18:54:19.944Z,75.40
2023-03-27T18:58:17.926Z,74.70
2023-03-27T19:02:15.950Z,74.40
2023-03-27T19:06:14.998Z,75.43
2023-03-27T19:10:12.980Z,77.71
2023-03-27T19:14:28.977Z,79.66
2023-03-27T19:18:58.909Z,80.58
2023-03-27T19:23:23.541Z,81.60
2023-03-27T19:27:23.506Z,82.14
2023-03-27T19:31:23.107Z,82.68
2023-03-27T19:35:21.951Z,82.04
2023-03-27T19:39:19.927Z,83.01
2023-03-27T19:43:17.918Z,82.52
2023-03-27T19:47:15.984Z,81.10
2023-03-27T19:51:13.868Z,79.62
2023-03-27T19:55:14.876Z,78.45
2023-03-27T19:59:24.120Z,77.33
2023-03-27T20:03:28.021Z,77.22
2023-03-27T20:07:25.851Z,75.78
2023-03-27T20:11:23.931Z,73.53
2023-03-27T20:15:23.808Z,73.22
2023-03-27T20:19:23.901Z,71.34
2023-03-27T20:23:24.831Z,70.47
2023-03-27T20:27:26.809Z,69.66
2023-03-27T20:31:28.990Z,69.48
2023-03-27T20:35:26.803Z,70.02
2023-03-27T20:39:28.835Z,70.26
2023-03-27T20:43:29.859Z,70.24
2023-03-27T20:47:28.797Z,70.05
2023-03-27T20:51:30.786Z,70.46
2023-03-27T20:55:34.560Z,69.60
2023-03-27T20:59:36.750Z,70.78
2023-03-27T21:03:38.728Z,70.97
2023-03-27T21:07:36.767Z,70.52
2023-03-27T21:11:34.781Z,69.56
2023-03-27T21:15:34.167Z,69.14
2023-03-27T21:19:31.711Z,69.29
2023-03-27T21:23:29.847Z,69.21
2023-03-27T21:28:17.086Z,68.45
2023-03-27T21:32:15.058Z,67.14
2023-03-27T21:36:13.243Z,66.34
2023-03-27T21:40:11.119Z,66.28
2023-03-27T21:44:08.991Z,67.04
2023-03-27T21:48:07.222Z,67.17
2023-03-27T21:52:05.052Z,66.63
2023-03-27T21:56:03.047Z,65.58
2023-03-27T22:00:00.948Z,65.23
2023-03-27T22:04:08.973Z,65.72
2023-03-27T22:08:06.910Z,64.75
2023-03-27T22:12:05.086Z,64.18
2023-03-27T22:16:03.271Z,64.20
2023-03-27T22:20:00.952Z,64.89
2023-03-27T22:23:59.038Z,65.05
2023-03-27T22:27:56.998Z,65.22
2023-03-27T22:31:54.920Z,65.55
2023-03-27T22:35:53.051Z,66.07
2023-03-27T22:39:50.930Z,64.96
2023-03-27T22:43:49.870Z,63.64
2023-03-27T22:47:47.911Z,63.09
2023-03-27T22:51:45.903Z,64.02
2023-03-27T22:55:43.833Z,63.61
2023-03-27T22:59:41.862Z,63.40
2023-03-27T23:03:42.952Z,63.37
2023-03-27T23:07:40.845Z,62.93
2023-03-27T23:11:38.859Z,63.57
2023-03-27T23:15:36.846Z,61.42
2023-03-27T23:19:34.918Z,57.96
2023-03-27T23:23:32.844Z,56.05
2023-03-27T23:27:30.883Z,56.73
2023-03-27T23:31:33.936Z,56.09
2023-03-27T23:35:31.866Z,55.86
2023-03-27T23:39:29.840Z,56.52
2023-03-27T23:43:27.816Z,55.15
2023-03-27T23:47:25.859Z,55.68
2023-03-27T23:51:24.888Z,55.07
2023-03-27T23:55:22.849Z,54.44
2023-03-27T23:59:20.848Z,55.70
